Time;durP1;ratioP1;P1;durP2;ratioP2;P2;SDS_P1;SDS_P2;PMS_P1;PMS_P2;Temp;Humidity;BMP_temperature;BMP_pressure;BME280_temperature;BME280_humidity;BME280_pressure;Samples;Min_cycle;Max_cycle;Signal;HPM_P1;HPM_P2
2021/07/21 00:06:47;;;;;;;13.45;5.45;;;16.60;99.90;;;;;;20663459;28;20089;-50
2021/07/21 00:17:02;;;;;;;13.32;5.30;;;16.60;99.90;;;;;;20662697;28;20046;-48
2021/07/21 00:27:04;;;;;;;16.52;5.32;;;16.50;99.90;;;;;;20662438;28;20026;-47
2021/07/21 00:37:07;;;;;;;9.65;5.03;;;16.40;99.90;;;;;;20661218;28;20050;-49
2021/07/21 00:47:09;;;;;;;14.27;5.32;;;16.30;99.90;;;;;;20661085;28;20042;-52
2021/07/21 00:57:12;;;;;;;11.55;6.07;;;16.00;99.90;;;;;;20659604;28;20050;-47
2021/07/21 01:07:14;;;;;;;11.60;7.57;;;15.80;99.90;;;;;;20660927;28;20122;-51
2021/07/21 01:17:28;;;;;;;10.07;5.85;;;15.80;99.90;;;;;;20683700;28;20105;-52
2021/07/21 01:27:41;;;;;;;9.60;6.65;;;15.90;99.90;;;;;;20685170;28;20035;-49
2021/07/21 01:37:51;;;;;;;13.57;7.00;;;15.90;99.90;;;;;;20685675;28;20038;-50
2021/07/21 01:47:54;;;;;;;12.93;7.37;;;15.90;99.90;;;;;;20686226;28;20037;-47
2021/07/21 01:58:00;;;;;;;13.18;7.63;;;15.80;99.90;;;;;;20686202;28;20059;-47
2021/07/21 02:08:22;;;;;;;10.90;6.13;;;15.70;99.90;;;;;;20686684;28;20038;-48
2021/07/21 02:18:34;;;;;;;15.82;7.18;;;15.60;99.90;;;;;;20717479;28;20038;-46
2021/07/21 02:28:37;;;;;;;11.40;5.68;;;15.50;99.90;;;;;;20705220;28;20038;-52
2021/07/21 02:38:40;;;;;;;17.65;8.90;;;15.20;99.90;;;;;;20671541;28;20030;-48
2021/07/21 02:48:46;;;;;;;12.82;6.80;;;14.90;99.90;;;;;;20670240;28;20058;-46
2021/07/21 02:59:01;;;;;;;12.65;7.03;;;15.10;99.90;;;;;;20670198;28;20074;-53
2021/07/21 03:09:04;;;;;;;18.20;8.30;;;14.90;99.90;;;;;;20670162;28;20026;-48
2021/07/21 03:19:27;;;;;;;13.70;7.75;;;14.80;99.90;;;;;;20669293;28;20373;-47
2021/07/21 03:29:36;;;;;;;13.27;7.60;;;15.00;99.90;;;;;;20666704;28;20038;-46
2021/07/21 03:39:40;;;;;;;14.40;7.35;;;15.10;99.90;;;;;;20665935;28;20137;-48
2021/07/21 03:50:03;;;;;;;10.15;6.70;;;14.90;99.90;;;;;;20667489;28;20038;-46
2021/07/21 04:00:13;;;;;;;12.00;6.97;;;14.50;99.90;;;;;;20680980;28;20046;-47
2021/07/21 04:10:28;;;;;;;12.77;7.05;;;14.40;99.90;;;;;;20664500;28;20038;-51
2021/07/21 04:20:32;;;;;;;15.13;7.90;;;14.40;99.90;;;;;;20665748;28;20035;-48
2021/07/21 04:30:36;;;;;;;12.95;6.38;;;14.60;99.90;;;;;;20664595;28;20034;-50
2021/07/21 04:40:44;;;;;;;15.82;8.15;;;15.10;99.90;;;;;;20678151;28;20101;-53
2021/07/21 04:51:17;;;;;;;11.80;6.97;;;15.30;99.90;;;;;;20660701;28;20403;-46
2021/07/21 05:01:21;;;;;;;11.38;6.72;;;15.80;99.90;;;;;;20659249;28;20503;-52
2021/07/21 05:11:25;;;;;;;14.05;6.38;;;16.20;99.90;;;;;;20660500;28;20077;-48
2021/07/21 05:21:32;;;;;;;8.82;5.25;;;16.50;99.90;;;;;;20658907;28;20092;-48
2021/07/21 05:31:35;;;;;;;7.45;4.50;;;16.80;99.90;;;;;;20657806;28;20030;-51
2021/07/21 05:41:59;;;;;;;7.78;3.80;;;17.30;99.90;;;;;;20658481;28;20093;-48
2021/07/21 05:52:05;;;;;;;13.57;3.87;;;18.00;99.90;;;;;;20659136;28;20062;-46
2021/07/21 06:02:11;;;;;;;8.75;3.97;;;18.50;99.90;;;;;;20668643;28;20054;-48
2021/07/21 06:12:17;;;;;;;10.07;4.22;;;19.20;99.90;;;;;;20705679;28;20468;-50
2021/07/21 06:22:24;;;;;;;10.27;3.92;;;20.20;99.90;;;;;;20705703;28;20062;-53
2021/07/21 06:32:37;;;;;;;8.90;3.45;;;25.70;99.90;;;;;;20623198;28;20137;-47
2021/07/21 06:42:40;;;;;;;9.32;2.97;;;28.10;92.30;;;;;;20573663;28;20445;-51
2021/07/21 06:52:41;;;;;;;7.22;2.97;;;28.70;90.40;;;;;;20588344;28;20047;-48
2021/07/21 07:02:57;;;;;;;6.83;2.70;;;30.00;81.30;;;;;;20589250;28;20546;-48
2021/07/21 07:13:22;;;;;;;7.47;3.58;;;29.90;81.20;;;;;;20581521;28;20298;-53
2021/07/21 07:23:24;;;;;;;9.25;3.38;;;30.10;79.30;;;;;;20595115;28;20022;-53
2021/07/21 07:33:26;;;;;;;12.23;4.10;;;29.30;80.20;;;;;;20667465;28;20392;-50
2021/07/21 07:43:29;;;;;;;9.90;3.50;;;28.50;82.50;;;;;;20666291;28;20026;-52
2021/07/21 07:53:32;;;;;;;7.37;3.83;;;28.90;81.30;;;;;;20665284;28;20058;-54
2021/07/21 08:03:33;;;;;;;12.48;4.10;;;29.00;83.90;;;;;;20664351;28;20108;-52
2021/07/21 08:13:36;;;;;;;8.13;3.25;;;29.40;82.50;;;;;;20662558;28;20060;-51
2021/07/21 08:23:38;;;;;;;5.63;2.95;;;29.50;77.70;;;;;;20663064;28;20026;-53
2021/07/21 08:33:41;;;;;;;8.05;3.97;;;28.60;80.80;;;;;;20662611;28;20026;-52
2021/07/21 08:43:43;;;;;;;6.18;3.00;;;29.00;82.50;;;;;;20663604;28;20062;-48
2021/07/21 08:53:45;;;;;;;13.48;3.33;;;29.50;79.80;;;;;;20664651;28;20070;-52
2021/07/21 09:03:49;;;;;;;5.82;2.40;;;29.40;75.30;;;;;;20661875;28;20030;-51
2021/07/21 09:14:04;;;;;;;8.77;3.38;;;29.40;78.50;;;;;;20660487;28;20100;-53
2021/07/21 09:24:05;;;;;;;4.55;2.50;;;29.10;75.70;;;;;;20661065;28;20038;-48
2021/07/21 09:34:26;;;;;;;5.20;2.50;;;29.60;76.60;;;;;;20672184;28;20062;-51
2021/07/21 09:44:36;;;;;;;7.80;3.05;;;30.20;75.90;;;;;;20675446;28;20038;-50
2021/07/21 09:54:37;;;;;;;7.03;2.97;;;30.00;76.60;;;;;;20673255;28;20108;-48
2021/07/21 10:04:40;;;;;;;9.35;4.10;;;29.50;79.40;;;;;;20672453;28;20030;-49
2021/07/21 10:14:58;;;;;;;8.07;4.00;;;29.90;78.90;;;;;;20672137;28;20461;-50
2021/07/21 10:24:59;;;;;;;13.85;3.92;;;29.40;82.30;;;;;;20671603;28;20046;-50
2021/07/21 10:35:02;;;;;;;5.65;2.97;;;29.30;83.80;;;;;;20670768;28;20030;-53
2021/07/21 10:45:15;;;;;;;9.98;3.50;;;29.60;84.40;;;;;;20669190;28;20036;-48
2021/07/21 10:55:32;;;;;;;5.22;2.92;;;29.70;81.20;;;;;;20669318;28;20508;-51
2021/07/21 11:05:39;;;;;;;4.95;2.60;;;30.10;78.00;;;;;;20668077;28;20042;-48
2021/07/21 11:15:44;;;;;;;5.70;2.65;;;29.90;79.00;;;;;;20669128;28;20037;-50
2021/07/21 11:25:46;;;;;;;7.97;2.78;;;29.20;79.00;;;;;;20666936;28;20480;-52
2021/07/21 11:35:50;;;;;;;9.32;2.83;;;29.60;82.60;;;;;;20666877;28;20042;-50
2021/07/21 11:45:52;;;;;;;9.80;3.55;;;29.00;80.60;;;;;;20666075;28;20031;-48
2021/07/21 11:56:05;;;;;;;5.88;2.92;;;28.40;82.80;;;;;;20664833;28;20054;-53
2021/07/21 12:06:07;;;;;;;5.40;3.35;;;29.00;82.30;;;;;;20665279;28;20042;-50
2021/07/21 12:16:09;;;;;;;7.97;3.25;;;28.90;83.40;;;;;;20663759;28;20058;-48
2021/07/21 12:26:11;;;;;;;7.55;3.42;;;28.70;84.60;;;;;;20662518;28;20060;-49
2021/07/21 12:36:14;;;;;;;7.07;3.63;;;28.90;80.20;;;;;;20662948;28;20037;-53
2021/07/21 12:46:17;;;;;;;9.23;3.67;;;27.90;84.30;;;;;;20662228;28;20030;-48
2021/07/21 12:56:18;;;;;;;7.50;4.13;;;26.60;86.40;;;;;;20660997;28;20041;-52
2021/07/21 13:06:24;;;;;;;7.15;3.53;;;26.50;87.20;;;;;;20660445;28;20035;-49
2021/07/21 13:16:32;;;;;;;7.93;4.22;;;25.30;90.30;;;;;;20661521;28;20031;-49
2021/07/21 13:26:34;;;;;;;;;;;24.60;91.20;;;;;;20662563;28;20066;-49
2021/07/21 13:36:40;;;;;;;8.65;4.20;;;25.00;92.20;;;;;;20659660;28;19913;-50
2021/07/21 13:46:53;;;;;;;7.40;4.15;;;25.30;91.60;;;;;;20660966;28;20038;-53
2021/07/21 13:56:58;;;;;;;13.05;4.78;;;25.80;90.90;;;;;;20660324;28;20109;-48
2021/07/21 14:07:02;;;;;;;7.65;4.85;;;25.00;91.90;;;;;;20660849;28;20031;-49
2021/07/21 14:17:12;;;;;;;7.10;3.88;;;25.80;91.50;;;;;;20660143;28;20038;-53
2021/07/21 14:27:20;;;;;;;10.38;4.75;;;26.60;91.10;;;;;;20674146;28;20027;-49
2021/07/21 14:37:27;;;;;;;7.20;4.65;;;26.90;91.30;;;;;;20672990;28;20086;-47
2021/07/21 14:47:35;;;;;;;8.65;5.55;;;26.50;90.70;;;;;;20672371;28;20043;-53
2021/07/21 14:57:39;;;;;;;8.40;5.05;;;26.10;90.50;;;;;;20673548;28;20424;-49
2021/07/21 15:07:44;;;;;;;9.20;5.70;;;25.60;92.60;;;;;;20672324;28;20034;-48
2021/07/21 15:17:52;;;;;;;7.07;5.50;;;26.70;92.90;;;;;;20672214;28;20030;-50
2021/07/21 15:27:59;;;;;;;9.13;5.90;;;27.20;90.00;;;;;;20683416;28;20042;-50
2021/07/21 15:38:02;;;;;;;7.90;5.20;;;26.30;91.20;;;;;;20668579;28;20039;-47
2021/07/21 15:48:04;;;;;;;11.20;5.28;;;26.30;91.00;;;;;;20668406;28;20433;-51
2021/07/21 15:58:10;;;;;;;12.93;5.45;;;25.40;91.90;;;;;;20666814;28;20057;-53
2021/07/21 16:08:12;;;;;;;8.43;5.47;;;25.10;92.80;;;;;;20666866;28;20241;-54
2021/07/21 16:18:14;;;;;;;10.93;6.03;;;25.70;92.20;;;;;;20666508;28;20038;-52
2021/07/21 16:28:16;;;;;;;11.27;6.60;;;24.40;93.20;;;;;;20665330;28;20097;-48
2021/07/21 16:38:17;;;;;;;14.02;8.35;;;23.40;95.30;;;;;;20665874;28;20029;-49
2021/07/21 16:48:19;;;;;;;14.07;7.95;;;22.60;97.10;;;;;;20663724;28;20034;-47
2021/07/21 16:58:37;;;;;;;11.10;7.13;;;22.00;98.60;;;;;;20664597;28;20109;-50
2021/07/21 17:08:40;;;;;;;11.00;6.90;;;21.40;99.90;;;;;;20662953;28;20508;-50
2021/07/21 17:18:43;;;;;;;12.35;9.18;;;20.90;99.90;;;;;;20663899;28;20337;-51
2021/07/21 17:28:45;;;;;;;15.95;9.52;;;20.60;99.90;;;;;;20661029;28;20093;-48
2021/07/21 17:38:47;;;;;;;12.18;9.18;;;20.10;99.90;;;;;;20660494;28;20039;-53
2021/07/21 17:48:49;;;;;;;15.05;8.25;;;19.70;99.90;;;;;;20662308;28;20038;-47
2021/07/21 17:58:51;;;;;;;14.82;8.82;;;19.40;99.90;;;;;;20674866;28;20054;-48
2021/07/21 18:08:53;;;;;;;11.60;7.90;;;19.10;99.90;;;;;;20708009;28;20038;-48
2021/07/21 18:18:55;;;;;;;11.48;7.90;;;18.90;99.90;;;;;;20676206;28;20039;-49
2021/07/21 18:28:57;;;;;;;16.80;9.18;;;18.90;99.90;;;;;;20707289;28;20089;-46
2021/07/21 18:38:58;;;;;;;10.98;8.70;;;18.80;99.90;;;;;;20675992;28;20030;-46
2021/07/21 18:49:00;;;;;;;12.10;8.35;;;18.60;99.90;;;;;;20672505;28;20073;-46
2021/07/21 18:59:05;;;;;;;16.52;9.90;;;18.50;99.90;;;;;;20671968;28;20046;-46
2021/07/21 19:09:07;;;;;;;18.63;8.95;;;18.40;99.90;;;;;;20670926;28;20097;-46
2021/07/21 19:19:08;;;;;;;13.57;7.88;;;18.30;99.90;;;;;;20671770;28;20546;-50
2021/07/21 19:29:11;;;;;;;14.80;8.45;;;18.20;99.90;;;;;;20670147;28;20030;-47
2021/07/21 19:39:13;;;;;;;13.65;10.13;;;18.30;99.90;;;;;;20669665;28;20050;-49
2021/07/21 19:49:17;;;;;;;11.10;7.88;;;18.40;99.90;;;;;;20667363;28;20451;-49
2021/07/21 19:59:19;;;;;;;10.88;7.78;;;18.50;99.90;;;;;;20665155;28;20050;-50
2021/07/21 20:09:23;;;;;;;13.77;8.10;;;18.40;99.90;;;;;;20668454;28;20034;-47
2021/07/21 20:19:25;;;;;;;15.95;8.18;;;18.20;99.90;;;;;;20667058;28;20093;-48
2021/07/21 20:29:27;;;;;;;12.73;7.90;;;17.90;99.90;;;;;;20665410;28;20042;-46
2021/07/21 20:39:29;;;;;;;13.38;9.35;;;17.60;99.90;;;;;;20662853;28;20038;-47
2021/07/21 20:49:31;;;;;;;14.57;10.73;;;17.40;99.90;;;;;;20662153;28;20031;-46
2021/07/21 20:59:33;;;;;;;19.30;10.70;;;17.40;99.90;;;;;;20661625;28;20073;-52
2021/07/21 21:09:35;;;;;;;15.30;10.43;;;17.30;99.90;;;;;;20660852;28;20101;-46
2021/07/21 21:19:37;;;;;;;18.40;11.82;;;17.00;99.90;;;;;;20660438;28;20030;-46
2021/07/21 21:29:54;;;;;;;17.98;11.68;;;16.90;99.90;;;;;;20668196;28;20061;-51
2021/07/21 21:39:56;;;;;;;23.85;13.77;;;16.60;99.90;;;;;;20676804;28;20046;-48
2021/07/21 21:49:58;;;;;;;22.80;15.02;;;16.30;99.90;;;;;;20679750;28;20035;-47
2021/07/21 22:00:00;;;;;;;23.95;16.42;;;16.10;99.90;;;;;;20678796;28;20046;-50
2021/07/21 22:10:07;;;;;;;26.30;16.77;;;16.00;99.90;;;;;;20678748;28;20046;-48
2021/07/21 22:20:11;;;;;;;30.65;19.75;;;16.00;99.90;;;;;;20676175;28;20031;-48
2021/07/21 22:30:36;;;;;;;23.17;15.80;;;15.90;99.90;;;;;;20675371;28;20456;-48
2021/07/21 22:40:38;;;;;;;;;;;16.00;99.90;;;;;;20672377;28;20499;-47
2021/07/21 22:50:40;;;;;;;27.60;14.45;;;16.20;99.90;;;;;;20675802;28;19914;-50
2021/07/21 23:00:56;;;;;;;26.92;13.95;;;16.40;99.90;;;;;;20673776;28;20109;-49
2021/07/21 23:11:35;;;;;;;17.23;11.55;;;16.70;99.90;;;;;;20672901;28;20520;-48
2021/07/21 23:21:38;;;;;;;19.60;11.73;;;17.00;99.90;;;;;;20672314;28;20035;-48
2021/07/21 23:31:41;;;;;;;15.57;10.77;;;17.10;99.90;;;;;;20670350;28;20476;-51
2021/07/21 23:42:00;;;;;;;19.02;11.45;;;17.30;99.90;;;;;;20671255;28;20371;-51
2021/07/21 23:52:02;;;;;;;14.70;10.13;;;17.40;99.90;;;;;;20670561;28;20544;-49
